Friendship, Indiana
Current Conditions -  °F | °C
As of 12:52 PM on Thursday 23 Oct 2014 (Local Time) from KCVG Reporting Station
Scattered Clouds Scattered Clouds  
Wind Chill: 56°   Ceiling: Unl
Heat Index: 56°   Visibility: 10mi
Dew Point: 40°   Wind: 0mph
Humidity: 55%   Direction: NA
Pressure: 30.23"   Gusts: NA
Location:  38.97°N, 85.15°W
Report Text: KCVG 231652Z 00000KT 10SM FEW032 SCT300 13/04 A3023 RMK AO2 SLP234 T01330044
Loading
Personal Weather Stations






























Interactive Weather Map New forecast layout! Learn more

10-Day Weather Forecast

Advertisements
Track Severe Weather on mobile